Pascagoula, MS

9:19 AM CDT on March 26, 2017 (GMT -0500)
Westgate | | Change Station

Elev 16 ft 30.41 °N, 88.64 °W | Updated 36 seconds ago

Mostly Cloudy
Mostly Cloudy
78.5 °F
Feels Like 81 °F
N
4.0
Wind Variable Wind from SSE

Today
High -- | Low -- °F
--% Chance of Precip.
Yesterday
High -- | Low -- °F
Precip. -- in
Pressure 30.06 in
Visibility 10.0 miles
Clouds Few 3100 ft
Mostly Cloudy 4100 ft
Mostly Cloudy 5000 ft
Heat Index 81 °F
Dew Point 71 °F
Humidity 78%
Rainfall 0.00 in
Snow Depth Not available.
6:50 AM 7:09 PM
Waning Crescent, 3% visible
METAR KPQL 261353Z 16005KT 10SM FEW031 BKN041 BKN050 22/18 A3006 RMK AO2 SLP180 T02220183
Pressure 30.06 in
Visibility 10.0 miles
Clouds Few 3100 ft
Mostly Cloudy 4100 ft
Mostly Cloudy 5000 ft
Heat Index 81 °F
Dew Point 71 °F
Humidity 78%
Rainfall 0.00 in
Snow Depth Not available.
6:50 AM 7:09 PM
Waning Crescent, 3% visible
METAR KPQL 261353Z 16005KT 10SM FEW031 BKN041 BKN050 22/18 A3006 RMK AO2 SLP180 T02220183

Get Severe Weather Alerts

Thanks for signing up!

Be on the lookout for a verification email in your inbox.

You'll start receiving the daily forecast at 8 AM.

×

10-Day Weather Forecast

Almanac

Astronomy

Mar. 26, 2017 Rise Set
Actual Time
Civil Twilight
Nautical Twilight
Astronomical Twilight
Moon
Length of Visible Light
Length of Day
Tomorrow will be .
, % of the Moon is Illuminated

Today's Extremes

State Highs State Lows

Community

WunderPhotos

Upload Photos

1,962,540 photos uploaded!

WunderBlog® & News

Nearby

Air Quality

  Air Quality AQ Index Pollutant
Not available.

Snow Depth

Station Depth Elevation

Earthquake Activity

City Distance Mag. Time & Date
Minimum magnitude displayed is 2.5.

Earthquake Activity

City Distance Mag. Time & Date
Minimum magnitude displayed is 2.5.

Coastal Water Temperatures

Place Temperature

Stations

Nearby Weather Stations

Station Location Temp. Windchill Dew Point Humidity Wind Precip. Elev Updated Type
                   

Watches & Warnings

There are currently no watches in effect.